createdAt,value
2022-11-30T00:01:18.567Z,20.48
2022-11-30T00:03:45.566Z,20.47
2022-11-30T00:06:14.944Z,20.48
2022-11-30T00:08:41.766Z,20.48
2022-11-30T00:11:21.159Z,20.47
2022-11-30T00:13:48.483Z,20.46
2022-11-30T00:16:15.274Z,20.47
2022-11-30T00:18:42.120Z,20.46
2022-11-30T00:21:12.397Z,20.47
2022-11-30T00:23:41.970Z,20.46
2022-11-30T00:26:11.871Z,20.46
2022-11-30T00:28:39.712Z,20.41
2022-11-30T00:31:12.376Z,20.44
2022-11-30T00:33:39.910Z,20.45
2022-11-30T00:36:13.146Z,20.42
2022-11-30T00:38:39.857Z,20.45
2022-11-30T00:41:06.995Z,20.45
2022-11-30T00:43:33.987Z,20.40
2022-11-30T00:46:01.260Z,20.42
2022-11-30T00:48:28.386Z,20.40
2022-11-30T00:50:55.019Z,20.39
2022-11-30T00:53:21.858Z,20.40
2022-11-30T00:55:48.695Z,20.41
2022-11-30T00:58:15.819Z,20.42
2022-11-30T01:00:42.622Z,20.40
2022-11-30T01:03:09.404Z,20.42
2022-11-30T01:05:36.482Z,20.41
2022-11-30T01:08:05.485Z,20.41
2022-11-30T01:10:33.592Z,20.42
2022-11-30T01:13:00.640Z,20.39
2022-11-30T01:15:27.217Z,20.41
2022-11-30T01:17:53.839Z,20.40
2022-11-30T01:20:20.389Z,20.41
2022-11-30T01:22:46.975Z,20.36
2022-11-30T01:25:13.543Z,20.40
2022-11-30T01:27:40.635Z,20.40
2022-11-30T01:30:07.620Z,20.36
2022-11-30T01:32:34.199Z,20.38
2022-11-30T01:35:00.745Z,20.38
2022-11-30T01:37:29.918Z,20.33
2022-11-30T01:39:56.499Z,20.38
2022-11-30T01:42:23.163Z,20.35
2022-11-30T01:45:00.747Z,20.37
2022-11-30T01:47:37.480Z,20.36
2022-11-30T01:50:12.964Z,20.35
2022-11-30T01:52:51.822Z,20.36
2022-11-30T01:55:27.918Z,20.36
2022-11-30T01:57:59.572Z,20.36
2022-11-30T02:00:26.187Z,20.34
2022-11-30T02:03:01.586Z,20.34
2022-11-30T02:05:28.886Z,20.34
2022-11-30T02:07:55.928Z,20.34
2022-11-30T02:10:27.298Z,20.34
2022-11-30T02:12:59.951Z,20.34
2022-11-30T02:15:31.947Z,20.33
2022-11-30T02:18:10.142Z,20.32
2022-11-30T02:20:59.742Z,20.31
2022-11-30T02:23:44.838Z,20.31
2022-11-30T02:26:28.794Z,20.26
2022-11-30T02:29:08.772Z,20.31
2022-11-30T02:31:44.769Z,20.26
2022-11-30T02:34:16.103Z,20.30
2022-11-30T02:36:45.378Z,20.18
2022-11-30T02:39:11.950Z,20.25
2022-11-30T02:41:39.691Z,20.27
2022-11-30T02:44:09.151Z,20.28
2022-11-30T02:46:42.558Z,20.29
2022-11-30T02:49:21.219Z,20.27
2022-11-30T02:51:50.277Z,20.25
2022-11-30T02:54:18.883Z,20.28
2022-11-30T02:56:45.546Z,20.25
2022-11-30T02:59:12.435Z,20.25
2022-11-30T03:01:39.978Z,20.26
2022-11-30T03:04:06.630Z,20.25
2022-11-30T03:06:33.259Z,20.25
2022-11-30T03:08:59.787Z,20.24
2022-11-30T03:11:26.419Z,20.17
2022-11-30T03:13:53.054Z,20.24
2022-11-30T03:16:19.713Z,20.23
2022-11-30T03:18:46.283Z,20.23
2022-11-30T03:21:13.383Z,20.19
2022-11-30T03:23:40.834Z,20.23
2022-11-30T03:26:09.489Z,20.21
2022-11-30T03:28:37.026Z,20.23
2022-11-30T03:31:04.455Z,20.22
2022-11-30T03:33:31.076Z,20.19
2022-11-30T03:36:02.388Z,20.20
2022-11-30T03:38:29.586Z,20.20
2022-11-30T03:41:00.582Z,20.20
2022-11-30T03:43:27.298Z,20.19
2022-11-30T03:45:53.910Z,20.19
2022-11-30T03:48:20.548Z,20.18
2022-11-30T03:50:49.864Z,20.18
2022-11-30T03:53:18.177Z,20.17
2022-11-30T03:55:44.839Z,20.17
2022-11-30T03:58:11.794Z,20.17
2022-11-30T04:00:39.003Z,20.16
2022-11-30T04:03:05.665Z,20.15
2022-11-30T04:05:32.319Z,20.16
2022-11-30T04:07:58.918Z,20.14
2022-11-30T04:10:25.577Z,20.14
2022-11-30T04:12:52.171Z,20.09
2022-11-30T04:15:18.712Z,20.11
2022-11-30T04:17:45.450Z,20.09
2022-11-30T04:20:12.131Z,20.13
2022-11-30T04:22:38.797Z,20.11
2022-11-30T04:25:05.939Z,20.11
2022-11-30T04:27:32.516Z,20.11
2022-11-30T04:29:59.020Z,20.11
2022-11-30T04:32:25.580Z,20.11
2022-11-30T04:34:52.083Z,20.10
2022-11-30T04:37:18.652Z,20.08
2022-11-30T04:39:45.286Z,20.10
2022-11-30T04:42:12.336Z,20.08
2022-11-30T04:44:38.947Z,20.08
2022-11-30T04:47:05.633Z,20.08
2022-11-30T04:49:32.187Z,20.08
2022-11-30T04:51:58.739Z,20.06
2022-11-30T04:54:25.324Z,20.05
2022-11-30T04:56:51.967Z,20.06
2022-11-30T04:59:18.468Z,20.05
2022-11-30T05:01:45.068Z,20.06
2022-11-30T05:04:11.635Z,20.04
2022-11-30T05:06:38.275Z,20.04
2022-11-30T05:09:04.874Z,20.03
2022-11-30T05:11:31.422Z,20.03
2022-11-30T05:13:57.951Z,19.99
2022-11-30T05:16:24.726Z,20.02
2022-11-30T05:18:51.275Z,20.01
2022-11-30T05:21:17.865Z,19.98
2022-11-30T05:23:44.455Z,20.01
2022-11-30T05:26:11.130Z,20.00
2022-11-30T05:28:37.683Z,20.00
2022-11-30T05:31:05.605Z,19.97
2022-11-30T05:33:33.094Z,19.83
2022-11-30T05:35:59.782Z,19.96
2022-11-30T05:38:26.363Z,19.97
2022-11-30T05:40:52.908Z,19.98
2022-11-30T05:43:19.403Z,19.93
2022-11-30T05:45:46.007Z,19.96
2022-11-30T05:48:12.491Z,19.93
2022-11-30T05:50:39.024Z,19.95
2022-11-30T05:53:05.549Z,19.94
2022-11-30T05:55:33.443Z,19.85
2022-11-30T05:58:00.773Z,19.94
2022-11-30T06:00:27.651Z,19.93
2022-11-30T06:02:58.451Z,19.93
2022-11-30T06:05:26.275Z,19.85
2022-11-30T06:07:53.141Z,19.91
2022-11-30T06:10:20.047Z,19.90
2022-11-30T06:12:46.635Z,19.89
2022-11-30T06:15:13.366Z,19.80
2022-11-30T06:17:40.051Z,19.88
2022-11-30T06:20:07.975Z,19.86
2022-11-30T06:22:35.020Z,19.87
2022-11-30T06:25:01.680Z,19.85
2022-11-30T06:27:34.011Z,19.84
2022-11-30T06:30:01.503Z,19.86
2022-11-30T06:32:28.373Z,19.86
2022-11-30T06:34:55.309Z,19.83
2022-11-30T06:37:21.843Z,19.83
2022-11-30T06:40:05.941Z,19.83
2022-11-30T06:42:34.629Z,19.82
2022-11-30T06:45:01.809Z,19.81
2022-11-30T06:47:28.462Z,19.81
2022-11-30T06:49:55.231Z,19.81
2022-11-30T06:52:21.864Z,19.79
2022-11-30T06:54:49.102Z,19.75
2022-11-30T06:57:15.886Z,19.73
2022-11-30T06:59:42.438Z,19.74
2022-11-30T07:02:17.933Z,19.76
2022-11-30T07:04:48.452Z,19.78
2022-11-30T07:07:15.384Z,19.77
2022-11-30T07:09:42.266Z,19.77
2022-11-30T07:12:09.064Z,19.76
2022-11-30T07:14:35.718Z,19.76
2022-11-30T07:17:05.673Z,19.72
2022-11-30T07:19:34.506Z,19.68
2022-11-30T07:22:02.157Z,19.72
2022-11-30T07:24:47.467Z,19.75
2022-11-30T07:27:14.376Z,19.67
2022-11-30T07:29:40.930Z,19.73
2022-11-30T07:32:07.657Z,19.72
2022-11-30T07:34:34.225Z,19.67
2022-11-30T07:37:00.759Z,19.67
2022-11-30T07:39:27.291Z,19.73
2022-11-30T07:41:53.912Z,19.73
2022-11-30T07:44:20.576Z,19.71
2022-11-30T07:46:47.263Z,19.74
2022-11-30T07:49:13.926Z,19.74
2022-11-30T07:51:40.697Z,19.68
2022-11-30T07:54:07.426Z,19.65
2022-11-30T07:56:34.010Z,19.75
2022-11-30T07:59:02.023Z,19.68
2022-11-30T08:01:32.457Z,19.71
2022-11-30T08:03:59.428Z,19.74
2022-11-30T08:06:28.671Z,19.75
2022-11-30T08:08:58.821Z,19.75
2022-11-30T08:11:28.138Z,19.74
2022-11-30T08:13:54.987Z,19.71
2022-11-30T08:16:24.495Z,19.71
2022-11-30T08:18:52.235Z,19.76
2022-11-30T08:21:20.890Z,19.77
2022-11-30T08:23:53.175Z,19.77
2022-11-30T08:26:30.455Z,19.80
2022-11-30T08:28:59.014Z,19.82
2022-11-30T08:31:28.903Z,19.81
2022-11-30T08:33:57.455Z,19.85
2022-11-30T08:36:26.041Z,19.83
2022-11-30T08:38:52.704Z,19.92
2022-11-30T08:41:21.694Z,19.87
2022-11-30T08:43:49.474Z,19.94
2022-11-30T08:54:42.784Z,19.98
2022-11-30T08:57:09.584Z,19.94
2022-11-30T08:59:36.325Z,20.00
2022-11-30T09:02:03.588Z,19.98
2022-11-30T09:04:30.421Z,20.03
2022-11-30T09:06:59.206Z,20.03
2022-11-30T09:09:26.106Z,20.05
2022-11-30T09:11:52.701Z,20.07
2022-11-30T09:14:19.306Z,20.08
2022-11-30T09:16:45.867Z,20.10
2022-11-30T09:19:12.621Z,20.13
2022-11-30T09:21:39.214Z,20.09
2022-11-30T09:24:06.309Z,20.17
2022-11-30T09:26:32.884Z,20.19
2022-11-30T09:29:00.051Z,20.18
2022-11-30T09:31:27.454Z,20.21
2022-11-30T09:33:56.676Z,20.23
2022-11-30T09:36:27.304Z,20.26
2022-11-30T09:38:55.362Z,20.27
2022-11-30T09:41:40.313Z,20.29
2022-11-30T09:44:28.580Z,20.29
2022-11-30T09:47:02.682Z,20.29
2022-11-30T09:52:03.489Z,20.32
2022-11-30T09:54:42.111Z,20.33
2022-11-30T09:57:30.358Z,20.35
2022-11-30T09:59:59.947Z,20.36
2022-11-30T10:02:32.395Z,20.33
2022-11-30T10:05:00.683Z,20.37
2022-11-30T10:07:36.239Z,20.38
2022-11-30T10:10:31.865Z,20.39
2022-11-30T10:13:10.018Z,20.37
2022-11-30T10:15:39.259Z,20.40
2022-11-30T10:18:14.635Z,20.40
2022-11-30T10:21:00.690Z,20.41
2022-11-30T10:23:59.105Z,20.43
2022-11-30T10:26:43.807Z,20.42
2022-11-30T10:29:27.327Z,20.42
2022-11-30T10:31:59.008Z,20.43
2022-11-30T10:34:35.736Z,20.43
2022-11-30T10:37:17.545Z,20.43
2022-11-30T10:40:05.547Z,20.43
2022-11-30T10:42:42.466Z,20.42
2022-11-30T10:45:19.726Z,20.41
2022-11-30T10:47:55.343Z,20.42
2022-11-30T10:50:28.038Z,20.42
2022-11-30T10:52:58.271Z,20.42
2022-11-30T10:55:28.478Z,20.43
2022-11-30T10:58:01.997Z,20.42
2022-11-30T11:00:28.626Z,20.43
2022-11-30T11:02:55.510Z,20.43
2022-11-30T11:05:30.839Z,20.42
2022-11-30T11:08:06.220Z,20.34
2022-11-30T11:10:40.103Z,20.35
2022-11-30T11:13:16.433Z,20.41
2022-11-30T11:15:57.154Z,20.36
2022-11-30T11:18:29.814Z,20.42
2022-11-30T11:21:07.410Z,20.41
2022-11-30T11:23:35.670Z,20.38
2022-11-30T11:26:02.570Z,20.41
2022-11-30T11:28:29.436Z,20.42
2022-11-30T11:30:58.929Z,20.41
2022-11-30T11:33:28.094Z,20.42
2022-11-30T11:36:12.296Z,20.40
2022-11-30T11:38:42.936Z,20.42
2022-11-30T11:41:24.634Z,20.42
2022-11-30T11:44:21.178Z,20.41
2022-11-30T11:46:56.425Z,20.41
2022-11-30T11:49:28.532Z,20.41
2022-11-30T11:52:14.091Z,20.40
2022-11-30T11:54:58.639Z,20.39
2022-11-30T11:57:46.273Z,20.34
2022-11-30T12:00:18.942Z,20.38
2022-11-30T12:03:10.030Z,20.39
2022-11-30T12:05:42.850Z,20.36
2022-11-30T12:08:12.546Z,20.39
2022-11-30T12:10:52.661Z,20.38
2022-11-30T12:13:22.904Z,20.37
2022-11-30T12:16:15.021Z,20.40
2022-11-30T12:18:45.004Z,20.36
2022-11-30T12:21:29.844Z,20.36
2022-11-30T12:24:26.376Z,20.37
2022-11-30T12:26:55.623Z,20.36
2022-11-30T12:29:53.266Z,20.36
2022-11-30T12:32:25.969Z,20.35
2022-11-30T12:35:15.379Z,20.31
2022-11-30T12:38:06.715Z,20.35
2022-11-30T12:40:33.563Z,20.34
2022-11-30T12:43:07.647Z,20.34
2022-11-30T12:45:45.341Z,20.32
2022-11-30T12:48:38.171Z,20.37
2022-11-30T12:51:05.047Z,20.36
2022-11-30T12:53:36.300Z,20.36
2022-11-30T12:56:27.555Z,20.36
2022-11-30T12:59:06.886Z,20.34
2022-11-30T13:02:00.675Z,20.35
2022-11-30T13:04:38.116Z,20.32
2022-11-30T13:07:32.991Z,20.32
2022-11-30T13:10:06.136Z,20.30
2022-11-30T13:12:38.377Z,20.30
2022-11-30T13:15:15.680Z,20.29
2022-11-30T13:17:43.797Z,20.27
2022-11-30T13:20:33.761Z,20.30
2022-11-30T13:23:08.266Z,20.30
2022-11-30T13:26:12.095Z,20.31
2022-11-30T13:28:41.552Z,20.30
2022-11-30T13:31:17.835Z,20.27
2022-11-30T13:33:51.517Z,20.32
2022-11-30T13:36:26.857Z,20.31
2022-11-30T13:39:15.163Z,20.30
2022-11-30T13:41:49.362Z,20.31
2022-11-30T13:44:25.169Z,20.30
2022-11-30T13:46:53.345Z,20.29
2022-11-30T13:49:28.387Z,20.28
2022-11-30T13:52:20.648Z,20.29
2022-11-30T13:54:47.614Z,20.32
2022-11-30T13:57:29.797Z,20.33
2022-11-30T14:00:01.584Z,20.34
2022-11-30T14:02:36.268Z,20.34
2022-11-30T14:05:17.958Z,20.35
2022-11-30T14:07:46.917Z,20.33
2022-11-30T14:10:33.865Z,20.33
2022-11-30T14:13:10.166Z,20.36
2022-11-30T14:15:39.575Z,20.36
2022-11-30T14:18:08.909Z,20.38
2022-11-30T14:20:45.105Z,20.35
2022-11-30T14:23:24.794Z,20.38
2022-11-30T14:25:54.112Z,20.39
2022-11-30T14:28:25.553Z,20.39
2022-11-30T14:30:54.757Z,20.39
2022-11-30T14:33:36.383Z,20.40
2022-11-30T14:36:03.913Z,20.39
2022-11-30T14:38:31.390Z,20.41
2022-11-30T14:40:58.621Z,20.38
2022-11-30T14:43:25.850Z,20.37
2022-11-30T14:46:09.141Z,20.39
2022-11-30T14:48:39.607Z,20.40
2022-11-30T14:51:06.218Z,20.41
2022-11-30T14:53:43.506Z,20.43
2022-11-30T14:56:33.266Z,20.43
2022-11-30T14:59:06.660Z,20.43
2022-11-30T15:01:33.681Z,20.42
2022-11-30T15:04:12.269Z,20.41
2022-11-30T15:06:40.559Z,20.41
2022-11-30T15:09:17.071Z,20.34
2022-11-30T15:11:46.724Z,20.41
2022-11-30T15:14:13.411Z,20.42
2022-11-30T15:16:48.207Z,20.44
2022-11-30T15:19:26.644Z,20.44
2022-11-30T15:21:54.463Z,20.45
2022-11-30T15:24:21.537Z,20.45
2022-11-30T15:26:57.831Z,20.47
2022-11-30T15:29:30.339Z,20.48
2022-11-30T15:31:59.398Z,20.42
2022-11-30T15:34:37.127Z,20.51
2022-11-30T15:37:04.259Z,20.51
2022-11-30T15:39:32.611Z,20.52
2022-11-30T15:42:01.336Z,20.50
2022-11-30T15:44:41.735Z,20.52
2022-11-30T15:47:26.248Z,20.53
2022-11-30T15:49:54.768Z,20.53
2022-11-30T15:52:29.470Z,20.53
2022-11-30T15:55:03.547Z,20.54
2022-11-30T15:58:00.192Z,20.55
2022-11-30T16:00:26.906Z,20.54
2022-11-30T16:03:13.395Z,20.54
2022-11-30T16:05:41.151Z,20.54
2022-11-30T16:08:18.184Z,20.52
2022-11-30T16:10:45.215Z,20.53
2022-11-30T16:13:14.379Z,20.55
2022-11-30T16:15:48.551Z,20.55
2022-11-30T16:18:19.004Z,20.54
2022-11-30T16:20:49.743Z,20.55
2022-11-30T16:23:19.989Z,20.54
2022-11-30T16:25:48.142Z,20.54
2022-11-30T16:28:16.729Z,20.49
2022-11-30T16:30:44.574Z,20.54
2022-11-30T16:33:16.552Z,20.54
2022-11-30T16:36:00.656Z,20.55
2022-11-30T16:38:28.152Z,20.53
2022-11-30T16:40:55.774Z,20.54
2022-11-30T16:43:25.605Z,20.48
2022-11-30T16:45:52.474Z,20.47
2022-11-30T16:48:19.236Z,20.56
2022-11-30T16:50:45.922Z,20.57
2022-11-30T16:53:17.170Z,20.55
2022-11-30T16:55:44.431Z,20.51
2022-11-30T16:58:11.080Z,20.52
2022-11-30T17:00:40.125Z,20.52
2022-11-30T17:03:23.691Z,20.56
2022-11-30T17:05:50.396Z,20.49
2022-11-30T17:08:16.934Z,20.55
2022-11-30T17:10:43.596Z,20.46
2022-11-30T17:13:15.055Z,20.53
2022-11-30T17:15:41.713Z,20.51
2022-11-30T17:18:08.264Z,20.43
2022-11-30T17:20:36.989Z,20.50
2022-11-30T17:23:05.102Z,20.47
2022-11-30T17:25:32.879Z,20.49
2022-11-30T17:28:00.235Z,20.48
2022-11-30T17:30:27.787Z,20.41
2022-11-30T17:32:54.395Z,20.47
2022-11-30T17:35:21.114Z,20.44
2022-11-30T17:37:47.715Z,20.26
2022-11-30T17:40:15.996Z,20.37
2022-11-30T17:42:43.248Z,20.44
2022-11-30T17:45:10.414Z,20.43
2022-11-30T17:47:37.778Z,20.44
2022-11-30T17:50:06.917Z,20.43
2022-11-30T17:52:33.496Z,20.44
2022-11-30T17:55:00.142Z,20.29
2022-11-30T17:57:26.834Z,20.43
2022-11-30T17:59:53.388Z,20.44
2022-11-30T18:02:19.956Z,20.43
2022-11-30T18:04:46.933Z,20.44
2022-11-30T18:07:13.710Z,20.36
2022-11-30T18:09:42.681Z,20.38
2022-11-30T18:12:10.643Z,20.39
2022-11-30T18:14:37.250Z,20.43
2022-11-30T18:17:03.960Z,20.43
2022-11-30T18:19:30.539Z,20.44
2022-11-30T18:21:59.585Z,20.26
2022-11-30T18:24:26.527Z,20.44
2022-11-30T18:26:53.808Z,20.44
2022-11-30T18:29:20.726Z,20.39
2022-11-30T18:31:48.512Z,20.44
2022-11-30T18:34:15.579Z,20.43
2022-11-30T18:36:42.455Z,20.45
2022-11-30T18:39:09.455Z,20.38
2022-11-30T18:41:36.119Z,20.46
2022-11-30T18:44:02.643Z,20.46
2022-11-30T18:46:29.919Z,20.33
2022-11-30T18:48:56.667Z,20.46
2022-11-30T18:51:26.121Z,20.47
2022-11-30T18:54:01.395Z,20.48
2022-11-30T18:56:30.991Z,20.46
2022-11-30T18:59:10.392Z,20.48
2022-11-30T19:01:37.122Z,20.48
2022-11-30T19:04:07.156Z,20.48
2022-11-30T19:06:34.226Z,20.48
2022-11-30T19:09:03.121Z,20.49
2022-11-30T19:11:32.137Z,20.40
2022-11-30T19:13:59.455Z,20.47
2022-11-30T19:16:28.357Z,20.46
2022-11-30T19:18:55.520Z,20.50
2022-11-30T19:21:23.301Z,20.41
2022-11-30T19:23:50.200Z,20.49
2022-11-30T19:26:17.086Z,20.44
2022-11-30T19:28:45.095Z,20.45
2022-11-30T19:31:16.717Z,20.45
2022-11-30T19:33:45.177Z,20.47
2022-11-30T19:36:21.013Z,20.43
2022-11-30T19:38:48.194Z,20.45
2022-11-30T19:41:16.979Z,20.34
2022-11-30T19:43:47.837Z,20.44
2022-11-30T19:46:18.080Z,20.18
2022-11-30T19:48:44.989Z,20.45
2022-11-30T19:51:18.087Z,20.45
2022-11-30T19:53:46.005Z,20.46
2022-11-30T19:56:15.351Z,20.47
2022-11-30T19:58:43.910Z,20.41
2022-11-30T20:01:15.284Z,20.46
2022-11-30T20:03:44.293Z,20.47
2022-11-30T20:06:11.283Z,20.47
2022-11-30T20:08:38.932Z,20.36
2022-11-30T20:11:07.320Z,20.47
2022-11-30T20:13:34.047Z,20.48
2022-11-30T20:16:16.249Z,20.49
2022-11-30T20:18:46.365Z,20.48
2022-11-30T20:21:15.926Z,20.49
2022-11-30T20:23:43.764Z,20.49
2022-11-30T20:26:26.276Z,20.49
2022-11-30T20:28:53.458Z,20.49
2022-11-30T20:31:22.042Z,20.49
2022-11-30T20:33:49.451Z,20.43
2022-11-30T20:36:18.006Z,20.46
2022-11-30T20:38:45.264Z,20.48
2022-11-30T20:41:17.744Z,20.49
2022-11-30T20:43:44.700Z,20.40
2022-11-30T20:46:18.002Z,20.47
2022-11-30T20:48:45.167Z,20.48
2022-11-30T20:51:33.266Z,20.48
2022-11-30T20:54:02.113Z,20.47
2022-11-30T20:56:28.755Z,20.47
2022-11-30T20:58:55.429Z,20.46
2022-11-30T21:01:22.791Z,20.47
2022-11-30T21:03:49.646Z,20.47
2022-11-30T21:06:19.236Z,20.41
2022-11-30T21:08:45.947Z,20.41
2022-11-30T21:11:14.983Z,20.44
2022-11-30T21:13:44.046Z,20.47
2022-11-30T21:16:12.261Z,20.47
2022-11-30T21:18:40.799Z,20.47
2022-11-30T21:21:11.028Z,20.47
2022-11-30T21:23:39.302Z,20.46
2022-11-30T21:26:17.237Z,20.45
2022-11-30T21:28:45.350Z,20.40
2022-11-30T21:31:13.100Z,20.46
2022-11-30T21:33:40.172Z,20.45
2022-11-30T21:36:08.708Z,20.36
2022-11-30T21:38:35.767Z,20.43
2022-11-30T21:41:02.932Z,20.40
2022-11-30T21:43:30.672Z,20.41
2022-11-30T21:46:01.898Z,20.42
2022-11-30T21:48:30.816Z,20.35
2022-11-30T21:51:02.703Z,20.38
2022-11-30T21:53:29.949Z,20.43
2022-11-30T21:56:01.905Z,20.42
2022-11-30T21:58:30.424Z,20.34
2022-11-30T22:00:58.653Z,20.44
2022-11-30T22:03:25.711Z,20.44
2022-11-30T22:06:12.723Z,20.38
2022-11-30T22:08:40.995Z,20.45
2022-11-30T22:11:13.695Z,20.44
2022-11-30T22:13:41.071Z,20.44
2022-11-30T22:16:17.755Z,20.43
2022-11-30T22:18:45.100Z,20.45
2022-11-30T22:21:21.094Z,20.44
2022-11-30T22:23:53.307Z,20.44
2022-11-30T22:26:28.895Z,20.44
2022-11-30T22:29:07.591Z,20.44
2022-11-30T22:31:38.031Z,20.44
2022-11-30T22:34:05.012Z,20.44
2022-11-30T22:36:33.358Z,20.44
2022-11-30T22:39:03.585Z,20.32
2022-11-30T22:41:30.495Z,20.46
2022-11-30T22:43:58.414Z,20.46
2022-11-30T22:46:30.485Z,20.40
2022-11-30T22:49:02.111Z,20.47
2022-11-30T22:53:54.355Z,20.47
2022-11-30T22:56:41.512Z,20.52
2022-11-30T22:59:11.527Z,20.52
2022-11-30T23:01:42.589Z,20.53
2022-11-30T23:04:14.217Z,20.52
2022-11-30T23:06:42.402Z,20.52
2022-11-30T23:09:12.502Z,20.51
2022-11-30T23:11:39.220Z,20.51
2022-11-30T23:14:06.135Z,20.45
2022-11-30T23:16:32.775Z,20.50
2022-11-30T23:19:00.412Z,20.49
2022-11-30T23:21:41.401Z,20.49
2022-11-30T23:24:15.594Z,20.43
2022-11-30T23:26:43.051Z,20.47
2022-11-30T23:29:14.367Z,20.47
2022-11-30T23:31:42.800Z,20.45
2022-11-30T23:34:12.449Z,20.46
2022-11-30T23:36:39.363Z,20.47
2022-11-30T23:39:12.027Z,20.47
2022-11-30T23:41:38.832Z,20.46
2022-11-30T23:44:06.130Z,20.46
2022-11-30T23:46:32.990Z,20.47
2022-11-30T23:48:59.669Z,20.43
2022-11-30T23:51:26.464Z,20.47
2022-11-30T23:53:53.296Z,20.46
2022-11-30T23:56:22.256Z,20.46
